sensor_id;sensor_type;location;lat;lon;timestamp;temperature;humidity
80212;DHT22;69530;37.974;23.708;2023-04-23T00:00:07;24.80;34.20
80212;DHT22;69530;37.974;23.708;2023-04-23T00:02:38;24.80;34.30
80212;DHT22;69530;37.974;23.708;2023-04-23T00:05:05;24.80;34.30
80212;DHT22;69530;37.974;23.708;2023-04-23T00:07:34;24.70;34.40
80212;DHT22;69530;37.974;23.708;2023-04-23T00:10:01;24.70;34.40
80212;DHT22;69530;37.974;23.708;2023-04-23T00:12:30;24.70;34.40
80212;DHT22;69530;37.974;23.708;2023-04-23T00:14:57;24.70;34.40
80212;DHT22;69530;37.974;23.708;2023-04-23T00:17:22;24.70;34.40
80212;DHT22;69530;37.974;23.708;2023-04-23T00:19:48;24.70;34.40
80212;DHT22;69530;37.974;23.708;2023-04-23T00:22:14;24.70;34.30
80212;DHT22;69530;37.974;23.708;2023-04-23T00:24:42;24.70;34.20
80212;DHT22;69530;37.974;23.708;2023-04-23T00:27:08;24.70;34.10
80212;DHT22;69530;37.974;23.708;2023-04-23T00:29:33;24.70;34.00
80212;DHT22;69530;37.974;23.708;2023-04-23T00:31:59;24.70;33.90
80212;DHT22;69530;37.974;23.708;2023-04-23T00:34:26;24.70;33.90
80212;DHT22;69530;37.974;23.708;2023-04-23T00:36:52;24.60;33.80
80212;DHT22;69530;37.974;23.708;2023-04-23T00:39:17;24.60;33.70
80212;DHT22;69530;37.974;23.708;2023-04-23T00:41:43;24.70;33.70
80212;DHT22;69530;37.974;23.708;2023-04-23T00:44:09;24.70;33.60
80212;DHT22;69530;37.974;23.708;2023-04-23T00:46:35;24.60;33.60
80212;DHT22;69530;37.974;23.708;2023-04-23T00:49:01;24.70;34.60
80212;DHT22;69530;37.974;23.708;2023-04-23T00:51:28;24.70;33.50
80212;DHT22;69530;37.974;23.708;2023-04-23T00:53:54;24.70;33.50
80212;DHT22;69530;37.974;23.708;2023-04-23T00:56:21;24.70;33.50
80212;DHT22;69530;37.974;23.708;2023-04-23T00:58:48;24.70;33.50
80212;DHT22;69530;37.974;23.708;2023-04-23T01:01:15;24.70;33.50
80212;DHT22;69530;37.974;23.708;2023-04-23T01:03:45;24.70;33.50
80212;DHT22;69530;37.974;23.708;2023-04-23T01:06:13;24.70;33.50
80212;DHT22;69530;37.974;23.708;2023-04-23T01:08:39;24.70;33.50
80212;DHT22;69530;37.974;23.708;2023-04-23T01:11:07;24.70;33.40
80212;DHT22;69530;37.974;23.708;2023-04-23T01:13:34;24.70;33.50
80212;DHT22;69530;37.974;23.708;2023-04-23T01:16:00;24.60;33.40
80212;DHT22;69530;37.974;23.708;2023-04-23T01:18:27;24.70;33.40
80212;DHT22;69530;37.974;23.708;2023-04-23T01:20:54;24.70;33.40
80212;DHT22;69530;37.974;23.708;2023-04-23T01:23:20;24.70;33.40
80212;DHT22;69530;37.974;23.708;2023-04-23T01:25:46;24.70;33.40
80212;DHT22;69530;37.974;23.708;2023-04-23T01:28:12;24.70;33.40
80212;DHT22;69530;37.974;23.708;2023-04-23T01:30:41;24.70;33.40
80212;DHT22;69530;37.974;23.708;2023-04-23T01:33:07;24.70;33.50
80212;DHT22;69530;37.974;23.708;2023-04-23T01:35:34;24.70;33.50
80212;DHT22;69530;37.974;23.708;2023-04-23T01:38:02;24.70;33.40
80212;DHT22;69530;37.974;23.708;2023-04-23T01:40:28;24.70;33.50
80212;DHT22;69530;37.974;23.708;2023-04-23T01:42:55;24.70;33.50
80212;DHT22;69530;37.974;23.708;2023-04-23T01:45:21;24.70;33.50
80212;DHT22;69530;37.974;23.708;2023-04-23T01:47:47;24.70;33.50
80212;DHT22;69530;37.974;23.708;2023-04-23T01:50:13;24.70;34.50
80212;DHT22;69530;37.974;23.708;2023-04-23T01:52:40;24.70;33.60
80212;DHT22;69530;37.974;23.708;2023-04-23T01:55:07;24.70;33.60
80212;DHT22;69530;37.974;23.708;2023-04-23T01:57:34;24.70;33.60
80212;DHT22;69530;37.974;23.708;2023-04-23T02:00:08;24.70;33.60
80212;DHT22;69530;37.974;23.708;2023-04-23T02:02:39;24.70;33.50
80212;DHT22;69530;37.974;23.708;2023-04-23T02:05:14;24.70;33.60
80212;DHT22;69530;37.974;23.708;2023-04-23T02:07:41;24.70;33.60
80212;DHT22;69530;37.974;23.708;2023-04-23T02:10:08;24.70;33.70
80212;DHT22;69530;37.974;23.708;2023-04-23T02:12:36;24.70;33.70
80212;DHT22;69530;37.974;23.708;2023-04-23T02:15:02;24.70;33.70
80212;DHT22;69530;37.974;23.708;2023-04-23T02:17:28;24.70;33.70
80212;DHT22;69530;37.974;23.708;2023-04-23T02:19:54;24.70;33.80
80212;DHT22;69530;37.974;23.708;2023-04-23T02:22:20;24.70;33.70
80212;DHT22;69530;37.974;23.708;2023-04-23T02:24:47;24.70;33.80
80212;DHT22;69530;37.974;23.708;2023-04-23T02:27:13;24.70;33.80
80212;DHT22;69530;37.974;23.708;2023-04-23T02:29:38;24.70;33.80
80212;DHT22;69530;37.974;23.708;2023-04-23T02:32:04;24.70;33.80
80212;DHT22;69530;37.974;23.708;2023-04-23T02:34:30;24.70;33.80
80212;DHT22;69530;37.974;23.708;2023-04-23T02:36:56;24.70;33.80
80212;DHT22;69530;37.974;23.708;2023-04-23T02:39:21;24.70;33.80
80212;DHT22;69530;37.974;23.708;2023-04-23T02:41:47;24.70;33.70
80212;DHT22;69530;37.974;23.708;2023-04-23T02:44:13;24.70;33.80
80212;DHT22;69530;37.974;23.708;2023-04-23T02:46:38;24.70;33.80
80212;DHT22;69530;37.974;23.708;2023-04-23T02:49:04;24.70;33.80
80212;DHT22;69530;37.974;23.708;2023-04-23T02:51:31;24.70;33.70
80212;DHT22;69530;37.974;23.708;2023-04-23T02:53:57;24.70;33.70
80212;DHT22;69530;37.974;23.708;2023-04-23T02:56:23;24.70;33.80
80212;DHT22;69530;37.974;23.708;2023-04-23T02:58:49;24.70;33.80
80212;DHT22;69530;37.974;23.708;2023-04-23T03:01:15;24.70;34.80
80212;DHT22;69530;37.974;23.708;2023-04-23T03:03:41;24.70;33.80
80212;DHT22;69530;37.974;23.708;2023-04-23T03:06:07;24.70;33.80
80212;DHT22;69530;37.974;23.708;2023-04-23T03:08:33;24.70;33.80
80212;DHT22;69530;37.974;23.708;2023-04-23T03:10:58;24.70;33.80
80212;DHT22;69530;37.974;23.708;2023-04-23T03:13:25;24.70;33.80
80212;DHT22;69530;37.974;23.708;2023-04-23T03:15:52;24.70;33.80
80212;DHT22;69530;37.974;23.708;2023-04-23T03:18:19;24.70;33.80
80212;DHT22;69530;37.974;23.708;2023-04-23T03:20:45;24.70;33.80
80212;DHT22;69530;37.974;23.708;2023-04-23T03:23:11;24.70;33.80
80212;DHT22;69530;37.974;23.708;2023-04-23T03:25:37;24.70;33.90
80212;DHT22;69530;37.974;23.708;2023-04-23T03:28:02;24.70;33.80
80212;DHT22;69530;37.974;23.708;2023-04-23T03:30:29;24.70;33.80
80212;DHT22;69530;37.974;23.708;2023-04-23T03:32:56;24.70;33.90
80212;DHT22;69530;37.974;23.708;2023-04-23T03:35:23;24.70;33.80
80212;DHT22;69530;37.974;23.708;2023-04-23T03:37:48;24.70;33.80
80212;DHT22;69530;37.974;23.708;2023-04-23T03:40:14;24.70;33.80
80212;DHT22;69530;37.974;23.708;2023-04-23T03:42:40;24.70;33.80
80212;DHT22;69530;37.974;23.708;2023-04-23T03:45:06;24.70;33.80
80212;DHT22;69530;37.974;23.708;2023-04-23T03:47:32;24.70;33.80
80212;DHT22;69530;37.974;23.708;2023-04-23T03:49:58;24.70;33.80
80212;DHT22;69530;37.974;23.708;2023-04-23T03:52:24;24.70;33.80
80212;DHT22;69530;37.974;23.708;2023-04-23T03:54:50;24.70;33.80
80212;DHT22;69530;37.974;23.708;2023-04-23T03:57:15;24.70;33.80
80212;DHT22;69530;37.974;23.708;2023-04-23T03:59:41;24.70;33.80
80212;DHT22;69530;37.974;23.708;2023-04-23T04:02:07;24.60;33.70
80212;DHT22;69530;37.974;23.708;2023-04-23T04:04:33;24.70;33.80
80212;DHT22;69530;37.974;23.708;2023-04-23T04:06:59;24.70;33.70
80212;DHT22;69530;37.974;23.708;2023-04-23T04:09:25;24.70;33.70
80212;DHT22;69530;37.974;23.708;2023-04-23T04:11:54;24.70;33.80
80212;DHT22;69530;37.974;23.708;2023-04-23T04:14:21;24.80;33.70
80212;DHT22;69530;37.974;23.708;2023-04-23T04:16:47;24.90;33.40
80212;DHT22;69530;37.974;23.708;2023-04-23T04:19:13;25.10;33.20
80212;DHT22;69530;37.974;23.708;2023-04-23T04:21:38;25.30;33.00
80212;DHT22;69530;37.974;23.708;2023-04-23T04:24:04;25.30;32.80
80212;DHT22;69530;37.974;23.708;2023-04-23T04:26:30;25.30;32.90
80212;DHT22;69530;37.974;23.708;2023-04-23T04:28:59;25.20;32.90
80212;DHT22;69530;37.974;23.708;2023-04-23T04:31:26;25.20;33.00
80212;DHT22;69530;37.974;23.708;2023-04-23T04:33:55;25.40;32.80
80212;DHT22;69530;37.974;23.708;2023-04-23T04:36:21;25.70;32.50
80212;DHT22;69530;37.974;23.708;2023-04-23T04:38:50;26.00;32.10
80212;DHT22;69530;37.974;23.708;2023-04-23T04:41:17;26.30;31.80
80212;DHT22;69530;37.974;23.708;2023-04-23T04:43:44;26.50;31.30
80212;DHT22;69530;37.974;23.708;2023-04-23T04:46:11;26.80;30.90
80212;DHT22;69530;37.974;23.708;2023-04-23T04:48:37;27.00;30.70
80212;DHT22;69530;37.974;23.708;2023-04-23T04:51:03;27.20;30.30
80212;DHT22;69530;37.974;23.708;2023-04-23T04:53:29;27.50;30.00
80212;DHT22;69530;37.974;23.708;2023-04-23T04:55:54;27.70;29.80
80212;DHT22;69530;37.974;23.708;2023-04-23T04:58:20;28.00;29.50
80212;DHT22;69530;37.974;23.708;2023-04-23T05:00:46;28.20;29.30
80212;DHT22;69530;37.974;23.708;2023-04-23T05:03:19;28.40;28.90
80212;DHT22;69530;37.974;23.708;2023-04-23T05:05:45;28.50;28.80
80212;DHT22;69530;37.974;23.708;2023-04-23T05:08:12;28.30;28.80
80212;DHT22;69530;37.974;23.708;2023-04-23T05:10:41;28.00;29.00
80212;DHT22;69530;37.974;23.708;2023-04-23T05:13:06;27.80;29.30
80212;DHT22;69530;37.974;23.708;2023-04-23T05:15:32;27.50;29.50
80212;DHT22;69530;37.974;23.708;2023-04-23T05:17:58;27.30;29.80
80212;DHT22;69530;37.974;23.708;2023-04-23T05:20:24;27.00;30.10
80212;DHT22;69530;37.974;23.708;2023-04-23T05:22:49;26.80;30.50
80212;DHT22;69530;37.974;23.708;2023-04-23T05:25:15;26.60;30.80
80212;DHT22;69530;37.974;23.708;2023-04-23T05:27:41;26.50;31.00
80212;DHT22;69530;37.974;23.708;2023-04-23T05:30:09;26.40;31.10
80212;DHT22;69530;37.974;23.708;2023-04-23T05:32:36;26.30;31.20
80212;DHT22;69530;37.974;23.708;2023-04-23T05:35:02;26.30;31.30
80212;DHT22;69530;37.974;23.708;2023-04-23T05:37:29;26.20;31.40
80212;DHT22;69530;37.974;23.708;2023-04-23T05:39:55;26.20;31.50
80212;DHT22;69530;37.974;23.708;2023-04-23T05:42:22;26.20;31.60
80212;DHT22;69530;37.974;23.708;2023-04-23T05:44:48;26.10;31.60
80212;DHT22;69530;37.974;23.708;2023-04-23T05:47:14;26.10;31.60
80212;DHT22;69530;37.974;23.708;2023-04-23T05:49:40;26.10;31.60
80212;DHT22;69530;37.974;23.708;2023-04-23T05:52:06;26.10;31.70
80212;DHT22;69530;37.974;23.708;2023-04-23T05:54:31;26.10;31.70
80212;DHT22;69530;37.974;23.708;2023-04-23T05:56:57;26.10;31.70
80212;DHT22;69530;37.974;23.708;2023-04-23T05:59:23;26.10;31.80
80212;DHT22;69530;37.974;23.708;2023-04-23T06:01:49;26.10;31.70
80212;DHT22;69530;37.974;23.708;2023-04-23T06:04:15;26.10;31.80
80212;DHT22;69530;37.974;23.708;2023-04-23T06:06:44;26.10;31.70
80212;DHT22;69530;37.974;23.708;2023-04-23T06:09:10;26.10;31.70
80212;DHT22;69530;37.974;23.708;2023-04-23T06:11:36;26.10;31.70
80212;DHT22;69530;37.974;23.708;2023-04-23T06:14:03;26.10;31.70
80212;DHT22;69530;37.974;23.708;2023-04-23T06:16:28;26.10;31.60
80212;DHT22;69530;37.974;23.708;2023-04-23T06:18:54;26.10;31.60
80212;DHT22;69530;37.974;23.708;2023-04-23T06:21:24;26.10;31.60
80212;DHT22;69530;37.974;23.708;2023-04-23T06:23:50;26.10;31.60
80212;DHT22;69530;37.974;23.708;2023-04-23T06:26:16;26.10;31.60
80212;DHT22;69530;37.974;23.708;2023-04-23T06:28:43;26.10;31.70
80212;DHT22;69530;37.974;23.708;2023-04-23T06:31:09;26.10;31.70
80212;DHT22;69530;37.974;23.708;2023-04-23T06:33:36;26.10;31.60
80212;DHT22;69530;37.974;23.708;2023-04-23T06:36:05;26.00;31.50
80212;DHT22;69530;37.974;23.708;2023-04-23T06:38:31;26.00;31.50
80212;DHT22;69530;37.974;23.708;2023-04-23T06:40:57;26.00;31.50
80212;DHT22;69530;37.974;23.708;2023-04-23T06:43:23;26.00;31.60
80212;DHT22;69530;37.974;23.708;2023-04-23T06:45:49;26.00;31.60
80212;DHT22;69530;37.974;23.708;2023-04-23T06:48:15;26.00;31.60
80212;DHT22;69530;37.974;23.708;2023-04-23T06:50:41;26.00;31.70
80212;DHT22;69530;37.974;23.708;2023-04-23T06:53:07;26.00;31.60
80212;DHT22;69530;37.974;23.708;2023-04-23T06:55:33;26.00;31.50
80212;DHT22;69530;37.974;23.708;2023-04-23T06:57:59;26.00;31.50
80212;DHT22;69530;37.974;23.708;2023-04-23T07:00:25;26.00;31.50
80212;DHT22;69530;37.974;23.708;2023-04-23T07:02:51;26.00;31.50
80212;DHT22;69530;37.974;23.708;2023-04-23T07:05:17;26.00;31.50
80212;DHT22;69530;37.974;23.708;2023-04-23T07:07:43;26.00;31.50
80212;DHT22;69530;37.974;23.708;2023-04-23T07:10:12;26.00;31.50
80212;DHT22;69530;37.974;23.708;2023-04-23T07:12:38;25.90;31.50
80212;DHT22;69530;37.974;23.708;2023-04-23T07:15:04;25.90;31.50
80212;DHT22;69530;37.974;23.708;2023-04-23T07:17:31;26.00;31.60
80212;DHT22;69530;37.974;23.708;2023-04-23T07:19:57;26.00;31.60
80212;DHT22;69530;37.974;23.708;2023-04-23T07:22:24;26.00;31.60
80212;DHT22;69530;37.974;23.708;2023-04-23T07:24:51;25.90;31.50
80212;DHT22;69530;37.974;23.708;2023-04-23T07:27:17;25.90;31.50
80212;DHT22;69530;37.974;23.708;2023-04-23T07:29:43;25.90;31.30
80212;DHT22;69530;37.974;23.708;2023-04-23T07:32:09;25.90;31.20
80212;DHT22;69530;37.974;23.708;2023-04-23T07:34:35;25.90;31.10
80212;DHT22;69530;37.974;23.708;2023-04-23T07:37:03;25.90;31.10
80212;DHT22;69530;37.974;23.708;2023-04-23T07:39:29;25.90;31.00
80212;DHT22;69530;37.974;23.708;2023-04-23T07:41:55;25.80;30.90
80212;DHT22;69530;37.974;23.708;2023-04-23T07:44:23;25.80;30.80
80212;DHT22;69530;37.974;23.708;2023-04-23T07:46:49;25.90;30.80
80212;DHT22;69530;37.974;23.708;2023-04-23T07:49:15;25.80;30.70
80212;DHT22;69530;37.974;23.708;2023-04-23T07:51:41;25.80;30.70
80212;DHT22;69530;37.974;23.708;2023-04-23T07:54:07;25.80;30.70
80212;DHT22;69530;37.974;23.708;2023-04-23T07:56:33;25.80;30.60
80212;DHT22;69530;37.974;23.708;2023-04-23T07:58:59;25.80;30.60
80212;DHT22;69530;37.974;23.708;2023-04-23T08:01:25;25.80;30.70
80212;DHT22;69530;37.974;23.708;2023-04-23T08:03:51;25.80;30.90
80212;DHT22;69530;37.974;23.708;2023-04-23T08:06:17;25.80;31.00
80212;DHT22;69530;37.974;23.708;2023-04-23T08:08:43;25.80;30.90
80212;DHT22;69530;37.974;23.708;2023-04-23T08:11:09;25.80;30.80
80212;DHT22;69530;37.974;23.708;2023-04-23T08:13:36;25.80;30.80
80212;DHT22;69530;37.974;23.708;2023-04-23T08:16:02;25.70;30.60
80212;DHT22;69530;37.974;23.708;2023-04-23T08:18:28;25.80;30.60
80212;DHT22;69530;37.974;23.708;2023-04-23T08:20:54;25.70;30.40
80212;DHT22;69530;37.974;23.708;2023-04-23T08:23:21;25.70;30.40
80212;DHT22;69530;37.974;23.708;2023-04-23T08:25:46;25.70;30.40
80212;DHT22;69530;37.974;23.708;2023-04-23T08:28:12;25.70;30.40
80212;DHT22;69530;37.974;23.708;2023-04-23T08:30:38;25.70;30.30
80212;DHT22;69530;37.974;23.708;2023-04-23T08:33:04;25.70;30.30
80212;DHT22;69530;37.974;23.708;2023-04-23T08:35:29;25.60;30.20
80212;DHT22;69530;37.974;23.708;2023-04-23T08:37:55;25.60;30.20
80212;DHT22;69530;37.974;23.708;2023-04-23T08:40:21;25.60;30.20
80212;DHT22;69530;37.974;23.708;2023-04-23T08:42:56;25.60;30.30
80212;DHT22;69530;37.974;23.708;2023-04-23T08:45:23;25.50;30.10
80212;DHT22;69530;37.974;23.708;2023-04-23T08:47:48;25.50;30.10
80212;DHT22;69530;37.974;23.708;2023-04-23T08:50:17;25.50;30.10
80212;DHT22;69530;37.974;23.708;2023-04-23T08:52:52;25.50;30.20
80212;DHT22;69530;37.974;23.708;2023-04-23T08:55:19;25.50;30.20
80212;DHT22;69530;37.974;23.708;2023-04-23T08:57:46;25.50;30.20
80212;DHT22;69530;37.974;23.708;2023-04-23T09:00:14;25.50;30.20
80212;DHT22;69530;37.974;23.708;2023-04-23T09:02:43;25.50;30.10
80212;DHT22;69530;37.974;23.708;2023-04-23T09:05:09;25.40;30.10
80212;DHT22;69530;37.974;23.708;2023-04-23T09:07:35;25.40;30.20
80212;DHT22;69530;37.974;23.708;2023-04-23T09:10:05;25.40;30.10
80212;DHT22;69530;37.974;23.708;2023-04-23T09:12:35;25.50;30.00
80212;DHT22;69530;37.974;23.708;2023-04-23T09:15:02;25.50;30.00
80212;DHT22;69530;37.974;23.708;2023-04-23T09:17:35;25.50;30.00
80212;DHT22;69530;37.974;23.708;2023-04-23T09:20:02;25.40;29.90
80212;DHT22;69530;37.974;23.708;2023-04-23T09:22:49;25.40;29.90
80212;DHT22;69530;37.974;23.708;2023-04-23T09:25:21;25.30;29.80
80212;DHT22;69530;37.974;23.708;2023-04-23T09:27:49;25.30;29.90
80212;DHT22;69530;37.974;23.708;2023-04-23T09:30:17;25.30;30.00
80212;DHT22;69530;37.974;23.708;2023-04-23T09:32:45;25.20;29.90
80212;DHT22;69530;37.974;23.708;2023-04-23T09:35:17;25.20;29.90
80212;DHT22;69530;37.974;23.708;2023-04-23T09:37:50;25.30;30.00
80212;DHT22;69530;37.974;23.708;2023-04-23T09:40:20;25.20;29.90
80212;DHT22;69530;37.974;23.708;2023-04-23T09:42:48;25.20;29.80
80212;DHT22;69530;37.974;23.708;2023-04-23T09:45:14;25.20;29.80
80212;DHT22;69530;37.974;23.708;2023-04-23T09:47:47;25.30;29.80
80212;DHT22;69530;37.974;23.708;2023-04-23T09:50:14;25.20;29.70
80212;DHT22;69530;37.974;23.708;2023-04-23T09:52:40;25.20;29.70
80212;DHT22;69530;37.974;23.708;2023-04-23T09:55:06;25.20;29.70
80212;DHT22;69530;37.974;23.708;2023-04-23T09:57:36;25.30;29.70
80212;DHT22;69530;37.974;23.708;2023-04-23T10:00:36;25.30;29.70
80212;DHT22;69530;37.974;23.708;2023-04-23T10:03:02;25.30;29.70
80212;DHT22;69530;37.974;23.708;2023-04-23T10:05:28;25.30;29.70
80212;DHT22;69530;37.974;23.708;2023-04-23T10:07:55;25.30;29.60
80212;DHT22;69530;37.974;23.708;2023-04-23T10:10:24;25.30;29.60
80212;DHT22;69530;37.974;23.708;2023-04-23T10:12:52;25.30;29.60
80212;DHT22;69530;37.974;23.708;2023-04-23T10:15:24;25.30;29.60
80212;DHT22;69530;37.974;23.708;2023-04-23T10:17:51;25.30;29.60
80212;DHT22;69530;37.974;23.708;2023-04-23T10:20:20;25.20;29.40
80212;DHT22;69530;37.974;23.708;2023-04-23T10:22:46;25.30;29.40
80212;DHT22;69530;37.974;23.708;2023-04-23T10:25:12;25.30;29.30
80212;DHT22;69530;37.974;23.708;2023-04-23T10:27:40;25.30;29.40
80212;DHT22;69530;37.974;23.708;2023-04-23T10:30:08;25.30;29.40
80212;DHT22;69530;37.974;23.708;2023-04-23T10:32:35;25.30;29.40
80212;DHT22;69530;37.974;23.708;2023-04-23T10:35:01;25.30;29.50
80212;DHT22;69530;37.974;23.708;2023-04-23T10:37:27;25.30;29.40
80212;DHT22;69530;37.974;23.708;2023-04-23T10:39:55;25.30;29.30
80212;DHT22;69530;37.974;23.708;2023-04-23T10:42:21;25.30;29.30
80212;DHT22;69530;37.974;23.708;2023-04-23T10:44:48;25.30;29.30
80212;DHT22;69530;37.974;23.708;2023-04-23T10:47:16;25.30;29.30
80212;DHT22;69530;37.974;23.708;2023-04-23T10:49:43;25.30;29.30
80212;DHT22;69530;37.974;23.708;2023-04-23T10:52:13;25.30;29.40
80212;DHT22;69530;37.974;23.708;2023-04-23T10:54:56;25.30;29.50
80212;DHT22;69530;37.974;23.708;2023-04-23T10:57:22;25.30;29.60
80212;DHT22;69530;37.974;23.708;2023-04-23T10:59:53;25.30;29.60
80212;DHT22;69530;37.974;23.708;2023-04-23T11:02:21;25.30;29.70
80212;DHT22;69530;37.974;23.708;2023-04-23T11:04:54;25.30;29.70
80212;DHT22;69530;37.974;23.708;2023-04-23T11:07:25;25.40;29.80
80212;DHT22;69530;37.974;23.708;2023-04-23T11:09:51;25.30;29.80
80212;DHT22;69530;37.974;23.708;2023-04-23T11:14:55;25.30;29.80
80212;DHT22;69530;37.974;23.708;2023-04-23T11:22:34;25.30;29.90
80212;DHT22;69530;37.974;23.708;2023-04-23T11:25:01;25.30;29.90
80212;DHT22;69530;37.974;23.708;2023-04-23T11:27:29;25.30;30.00
80212;DHT22;69530;37.974;23.708;2023-04-23T11:29:56;25.30;30.20
80212;DHT22;69530;37.974;23.708;2023-04-23T11:32:22;25.30;30.30
80212;DHT22;69530;37.974;23.708;2023-04-23T11:34:48;25.30;30.50
80212;DHT22;69530;37.974;23.708;2023-04-23T11:37:16;25.30;30.60
80212;DHT22;69530;37.974;23.708;2023-04-23T11:39:44;25.30;30.80
80212;DHT22;69530;37.974;23.708;2023-04-23T11:42:14;25.30;30.90
80212;DHT22;69530;37.974;23.708;2023-04-23T11:44:44;25.40;31.10
80212;DHT22;69530;37.974;23.708;2023-04-23T11:47:12;25.40;31.10
80212;DHT22;69530;37.974;23.708;2023-04-23T11:49:40;25.40;31.30
80212;DHT22;69530;37.974;23.708;2023-04-23T11:52:07;25.40;31.20
80212;DHT22;69530;37.974;23.708;2023-04-23T11:54:33;25.40;31.40
80212;DHT22;69530;37.974;23.708;2023-04-23T11:57:00;25.40;31.40
80212;DHT22;69530;37.974;23.708;2023-04-23T11:59:27;25.40;31.50
80212;DHT22;69530;37.974;23.708;2023-04-23T12:01:57;25.40;31.70
80212;DHT22;69530;37.974;23.708;2023-04-23T12:04:27;25.40;31.80
80212;DHT22;69530;37.974;23.708;2023-04-23T12:06:55;25.40;31.90
80212;DHT22;69530;37.974;23.708;2023-04-23T12:09:23;25.40;32.20
80212;DHT22;69530;37.974;23.708;2023-04-23T12:11:49;25.40;32.20
80212;DHT22;69530;37.974;23.708;2023-04-23T12:14:20;25.40;32.40
80212;DHT22;69530;37.974;23.708;2023-04-23T12:16:51;25.40;32.40
80212;DHT22;69530;37.974;23.708;2023-04-23T12:19:19;25.40;32.60
80212;DHT22;69530;37.974;23.708;2023-04-23T12:21:55;25.40;32.60
80212;DHT22;69530;37.974;23.708;2023-04-23T12:24:23;25.40;32.50
80212;DHT22;69530;37.974;23.708;2023-04-23T12:26:52;25.40;32.60
80212;DHT22;69530;37.974;23.708;2023-04-23T12:29:20;25.40;32.60
80212;DHT22;69530;37.974;23.708;2023-04-23T12:31:46;25.40;32.60
80212;DHT22;69530;37.974;23.708;2023-04-23T12:34:13;25.40;32.60
80212;DHT22;69530;37.974;23.708;2023-04-23T12:36:44;25.40;32.50
80212;DHT22;69530;37.974;23.708;2023-04-23T12:41:53;25.50;32.50
80212;DHT22;69530;37.974;23.708;2023-04-23T12:44:20;25.50;32.50
80212;DHT22;69530;37.974;23.708;2023-04-23T12:46:57;25.50;32.50
80212;DHT22;69530;37.974;23.708;2023-04-23T12:49:24;25.50;32.50
80212;DHT22;69530;37.974;23.708;2023-04-23T12:51:51;25.50;32.50
80212;DHT22;69530;37.974;23.708;2023-04-23T12:54:17;25.50;32.60
80212;DHT22;69530;37.974;23.708;2023-04-23T12:56:43;25.50;32.50
80212;DHT22;69530;37.974;23.708;2023-04-23T12:59:09;25.50;32.60
80212;DHT22;69530;37.974;23.708;2023-04-23T13:01:35;25.50;32.70
80212;DHT22;69530;37.974;23.708;2023-04-23T13:04:01;25.50;32.70
80212;DHT22;69530;37.974;23.708;2023-04-23T13:06:27;25.40;32.70
80212;DHT22;69530;37.974;23.708;2023-04-23T13:08:53;25.40;32.80
80212;DHT22;69530;37.974;23.708;2023-04-23T13:11:20;25.50;32.80
80212;DHT22;69530;37.974;23.708;2023-04-23T13:13:46;25.50;32.70
80212;DHT22;69530;37.974;23.708;2023-04-23T13:16:12;25.50;32.70
80212;DHT22;69530;37.974;23.708;2023-04-23T13:18:38;25.50;33.80
80212;DHT22;69530;37.974;23.708;2023-04-23T13:21:03;25.50;32.90
80212;DHT22;69530;37.974;23.708;2023-04-23T13:23:29;25.50;32.90
80212;DHT22;69530;37.974;23.708;2023-04-23T13:25:55;25.50;32.70
80212;DHT22;69530;37.974;23.708;2023-04-23T13:28:22;25.50;32.70
80212;DHT22;69530;37.974;23.708;2023-04-23T13:30:48;25.50;32.70
80212;DHT22;69530;37.974;23.708;2023-04-23T13:33:13;25.50;32.70
80212;DHT22;69530;37.974;23.708;2023-04-23T13:35:41;25.60;32.80
80212;DHT22;69530;37.974;23.708;2023-04-23T13:38:07;25.60;32.70
80212;DHT22;69530;37.974;23.708;2023-04-23T13:40:33;25.60;32.70
80212;DHT22;69530;37.974;23.708;2023-04-23T13:42:58;25.60;32.70
80212;DHT22;69530;37.974;23.708;2023-04-23T13:45:25;25.60;32.80
80212;DHT22;69530;37.974;23.708;2023-04-23T13:47:51;25.60;32.70
80212;DHT22;69530;37.974;23.708;2023-04-23T13:50:16;25.50;32.70
80212;DHT22;69530;37.974;23.708;2023-04-23T13:52:42;25.60;32.80
80212;DHT22;69530;37.974;23.708;2023-04-23T13:55:08;25.50;32.80
80212;DHT22;69530;37.974;23.708;2023-04-23T13:57:34;25.50;32.80
80212;DHT22;69530;37.974;23.708;2023-04-23T14:00:00;25.50;32.80
80212;DHT22;69530;37.974;23.708;2023-04-23T14:02:26;25.50;32.90
80212;DHT22;69530;37.974;23.708;2023-04-23T14:04:52;25.50;32.90
80212;DHT22;69530;37.974;23.708;2023-04-23T14:07:17;25.50;32.80
80212;DHT22;69530;37.974;23.708;2023-04-23T14:09:43;25.50;32.80
80212;DHT22;69530;37.974;23.708;2023-04-23T14:12:13;25.50;32.80
80212;DHT22;69530;37.974;23.708;2023-04-23T14:14:39;25.50;32.80
80212;DHT22;69530;37.974;23.708;2023-04-23T14:17:04;25.50;32.90
80212;DHT22;69530;37.974;23.708;2023-04-23T14:19:30;25.50;32.90
80212;DHT22;69530;37.974;23.708;2023-04-23T14:21:59;25.50;32.90
80212;DHT22;69530;37.974;23.708;2023-04-23T14:24:33;25.50;32.90
80212;DHT22;69530;37.974;23.708;2023-04-23T14:26:58;25.60;32.90
80212;DHT22;69530;37.974;23.708;2023-04-23T14:29:50;25.60;32.90
80212;DHT22;69530;37.974;23.708;2023-04-23T14:32:16;25.60;32.80
80212;DHT22;69530;37.974;23.708;2023-04-23T14:34:43;25.60;32.90
80212;DHT22;69530;37.974;23.708;2023-04-23T14:37:09;25.50;32.80
80212;DHT22;69530;37.974;23.708;2023-04-23T14:39:35;25.50;32.80
80212;DHT22;69530;37.974;23.708;2023-04-23T14:42:01;25.50;32.80
80212;DHT22;69530;37.974;23.708;2023-04-23T14:44:27;25.50;32.80
80212;DHT22;69530;37.974;23.708;2023-04-23T14:46:53;25.50;32.80
80212;DHT22;69530;37.974;23.708;2023-04-23T14:49:20;25.50;32.80
80212;DHT22;69530;37.974;23.708;2023-04-23T14:51:47;25.50;32.70
80212;DHT22;69530;37.974;23.708;2023-04-23T14:54:16;25.50;32.70
80212;DHT22;69530;37.974;23.708;2023-04-23T14:56:42;25.50;32.70
80212;DHT22;69530;37.974;23.708;2023-04-23T14:59:08;25.50;32.60
80212;DHT22;69530;37.974;23.708;2023-04-23T15:01:33;25.50;32.60
80212;DHT22;69530;37.974;23.708;2023-04-23T15:04:00;25.50;32.70
80212;DHT22;69530;37.974;23.708;2023-04-23T15:06:26;25.50;32.70
80212;DHT22;69530;37.974;23.708;2023-04-23T15:08:52;25.50;32.70
80212;DHT22;69530;37.974;23.708;2023-04-23T15:11:17;25.50;32.60
80212;DHT22;69530;37.974;23.708;2023-04-23T15:13:48;25.50;32.50
80212;DHT22;69530;37.974;23.708;2023-04-23T15:16:34;25.50;32.50
80212;DHT22;69530;37.974;23.708;2023-04-23T15:19:03;25.50;32.50
80212;DHT22;69530;37.974;23.708;2023-04-23T15:21:34;25.50;32.60
80212;DHT22;69530;37.974;23.708;2023-04-23T15:24:00;25.50;32.60